createdAt,value
2018-04-27T00:00:47.577Z,10.63
2018-04-27T00:02:02.156Z,10.61
2018-04-27T00:03:16.442Z,10.6
2018-04-27T00:04:30.813Z,10.58
2018-04-27T00:05:45.547Z,10.56
2018-04-27T00:11:57.581Z,10.45
2018-04-27T00:13:11.574Z,10.43
2018-04-27T00:14:26.553Z,10.4
2018-04-27T00:15:41.006Z,10.37
2018-04-27T00:16:55.700Z,10.32
2018-04-27T00:18:09.925Z,10.28
2018-04-27T00:19:24.417Z,10.24
2018-04-27T00:20:39.387Z,10.23
2018-04-27T00:21:52.802Z,10.22
2018-04-27T00:23:06.869Z,10.18
2018-04-27T00:24:21.016Z,10.16
2018-04-27T00:25:35.774Z,10.15
2018-04-27T00:26:50.472Z,10.13
2018-04-27T00:28:04.783Z,10.1
2018-04-27T00:29:18.981Z,10.06
2018-04-27T00:30:33.462Z,10.04
2018-04-27T00:31:48.151Z,10.03
2018-04-27T00:33:02.847Z,10.02
2018-04-27T00:34:17.387Z,10.01
2018-04-27T00:35:32.070Z,9.97
2018-04-27T00:36:46.445Z,9.93
2018-04-27T00:38:01.142Z,9.88
2018-04-27T00:39:15.876Z,9.85
2018-04-27T00:40:29.777Z,9.82
2018-04-27T00:41:44.186Z,9.79
2018-04-27T00:42:58.835Z,9.79
2018-04-27T00:44:13.260Z,9.79
2018-04-27T00:45:27.460Z,9.78
2018-04-27T00:46:41.941Z,9.76
2018-04-27T00:47:56.948Z,9.77
2018-04-27T00:49:11.425Z,9.78
2018-04-27T00:50:25.854Z,9.77
2018-04-27T00:51:40.302Z,9.77
2018-04-27T00:52:55.303Z,9.76
2018-04-27T00:54:09.726Z,9.75
2018-04-27T00:55:24.171Z,9.75
2018-04-27T00:56:39.132Z,9.73
2018-04-27T00:57:53.691Z,9.72
2018-04-27T00:59:08.286Z,9.7
2018-04-27T01:00:23.319Z,9.7
2018-04-27T01:01:37.490Z,9.69
2018-04-27T01:02:51.996Z,9.68
2018-04-27T01:04:06.193Z,9.67
2018-04-27T01:05:20.406Z,9.67
2018-04-27T01:06:34.865Z,9.65
2018-04-27T01:07:49.572Z,9.64
2018-04-27T01:09:04.034Z,9.62
2018-04-27T01:10:18.197Z,9.6
2018-04-27T01:11:32.883Z,9.58
2018-04-27T01:12:47.821Z,9.56
2018-04-27T01:14:02.823Z,9.54
2018-04-27T01:15:17.519Z,9.53
2018-04-27T01:16:31.465Z,9.51
2018-04-27T01:17:45.981Z,9.49
2018-04-27T01:18:59.843Z,9.47
2018-04-27T01:20:14.279Z,9.48
2018-04-27T01:21:28.221Z,9.47
2018-04-27T01:22:42.428Z,9.48
2018-04-27T01:23:56.861Z,9.48
2018-04-27T01:25:10.834Z,9.49
2018-04-27T01:26:25.368Z,9.49
2018-04-27T01:27:39.577Z,9.5
2018-04-27T01:28:53.860Z,9.5
2018-04-27T01:30:08.101Z,9.48
2018-04-27T01:31:21.785Z,9.45
2018-04-27T01:32:35.998Z,9.41
2018-04-27T01:33:50.066Z,9.37
2018-04-27T01:35:04.536Z,9.34
2018-04-27T01:36:19.096Z,9.3
2018-04-27T01:37:33.584Z,9.29
2018-04-27T01:38:48.327Z,9.26
2018-04-27T01:40:02.953Z,9.24
2018-04-27T01:41:17.164Z,9.2
2018-04-27T01:42:31.629Z,9.15
2018-04-27T01:43:45.891Z,9.11
2018-04-27T01:45:00.697Z,9.08
2018-04-27T01:46:15.151Z,9.05
2018-04-27T01:47:29.333Z,9.02
2018-04-27T01:48:44.306Z,8.98
2018-04-27T01:49:58.472Z,8.94
2018-04-27T01:51:12.926Z,8.9
2018-04-27T01:52:27.154Z,8.88
2018-04-27T01:53:42.594Z,8.86
2018-04-27T01:54:57.036Z,8.83
2018-04-27T01:56:11.295Z,8.8
2018-04-27T01:57:26.675Z,8.79
2018-04-27T01:58:41.640Z,8.77
2018-04-27T01:59:56.466Z,8.74
2018-04-27T02:01:10.873Z,8.72
2018-04-27T02:02:25.042Z,8.71
2018-04-27T02:03:39.475Z,8.7
2018-04-27T02:04:54.622Z,8.7
2018-04-27T02:06:08.817Z,8.71
2018-04-27T02:07:23.764Z,8.71
2018-04-27T02:08:37.938Z,8.71
2018-04-27T02:09:51.822Z,8.73
2018-04-27T02:11:05.509Z,8.73
2018-04-27T02:12:20.226Z,8.74
2018-04-27T02:13:34.141Z,8.74
2018-04-27T02:14:48.078Z,8.74
2018-04-27T02:16:02.552Z,8.73
2018-04-27T02:17:17.455Z,8.71
2018-04-27T02:18:31.129Z,8.7
2018-04-27T02:19:45.549Z,8.67
2018-04-27T02:21:00.010Z,8.65
2018-04-27T02:22:14.375Z,8.64
2018-04-27T02:23:28.803Z,8.62
2018-04-27T02:24:43.262Z,8.6
2018-04-27T02:25:57.485Z,8.6
2018-04-27T02:27:11.485Z,8.58
2018-04-27T02:28:25.724Z,8.55
2018-04-27T02:29:40.406Z,8.54
2018-04-27T02:30:54.303Z,8.5
2018-04-27T02:32:08.602Z,8.48
2018-04-27T02:33:22.299Z,8.45
2018-04-27T02:34:35.987Z,8.42
2018-04-27T02:35:50.488Z,8.4
2018-04-27T02:37:04.663Z,8.39
2018-04-27T02:38:19.427Z,8.36
2018-04-27T02:39:33.648Z,8.36
2018-04-27T02:40:48.385Z,8.35
2018-04-27T02:42:03.019Z,8.33
2018-04-27T02:43:16.909Z,8.3
2018-04-27T02:44:30.943Z,8.27
2018-04-27T02:45:45.376Z,8.22
2018-04-27T02:47:00.032Z,8.16
2018-04-27T02:48:14.644Z,8.11
2018-04-27T02:49:29.199Z,8.09
2018-04-27T02:50:44.153Z,8.07
2018-04-27T02:51:58.657Z,8.04
2018-04-27T02:53:12.630Z,8.01
2018-04-27T02:54:27.084Z,7.98
2018-04-27T02:55:41.405Z,7.97
2018-04-27T02:56:55.872Z,7.94
2018-04-27T02:58:10.247Z,7.93
2018-04-27T02:59:24.955Z,7.93
2018-04-27T03:00:39.189Z,7.92
2018-04-27T03:01:53.589Z,7.91
2018-04-27T03:03:07.556Z,7.89
2018-04-27T03:04:22.218Z,7.9
2018-04-27T03:05:36.437Z,7.9
2018-04-27T03:06:51.119Z,7.89
2018-04-27T03:08:05.507Z,7.88
2018-04-27T03:09:19.698Z,7.85
2018-04-27T03:10:34.115Z,7.85
2018-04-27T03:11:48.057Z,7.83
2018-04-27T03:13:02.767Z,7.81
2018-04-27T03:14:17.833Z,7.8
2018-04-27T03:15:31.774Z,7.79
2018-04-27T03:16:46.525Z,7.79
2018-04-27T03:18:00.967Z,7.78
2018-04-27T03:19:15.388Z,7.77
2018-04-27T03:20:29.616Z,7.77
2018-04-27T03:21:44.051Z,7.77
2018-04-27T03:22:58.023Z,7.77
2018-04-27T03:24:12.477Z,7.77
2018-04-27T03:25:27.137Z,7.76
2018-04-27T03:26:41.536Z,7.75
2018-04-27T03:27:56.266Z,7.72
2018-04-27T03:29:10.640Z,7.7
2018-04-27T03:30:24.388Z,7.68
2018-04-27T03:31:39.124Z,7.67
2018-04-27T03:32:53.335Z,7.64
2018-04-27T03:34:07.832Z,7.61
2018-04-27T03:35:22.688Z,7.57
2018-04-27T03:36:37.430Z,7.52
2018-04-27T03:37:51.670Z,7.48
2018-04-27T03:39:05.372Z,7.43
2018-04-27T03:40:19.088Z,7.42
2018-04-27T03:41:33.795Z,7.39
2018-04-27T03:42:47.465Z,7.36
2018-04-27T03:44:01.426Z,7.36
2018-04-27T03:45:16.046Z,7.36
2018-04-27T03:46:30.378Z,7.36
2018-04-27T03:47:44.836Z,7.36
2018-04-27T03:48:59.286Z,7.37
2018-04-27T03:50:14.262Z,7.38
2018-04-27T03:51:29.280Z,7.4
2018-04-27T03:52:43.735Z,7.42
2018-04-27T03:53:58.465Z,7.44
2018-04-27T03:55:12.237Z,7.44
2018-04-27T03:56:26.688Z,7.43
2018-04-27T03:57:41.664Z,7.44
2018-04-27T03:58:56.129Z,7.46
2018-04-27T04:00:10.859Z,7.48
2018-04-27T04:01:25.037Z,7.51
2018-04-27T04:02:40.080Z,7.55
2018-04-27T04:03:54.772Z,7.56
2018-04-27T04:05:09.745Z,7.6
2018-04-27T04:06:23.966Z,7.61
2018-04-27T04:07:38.666Z,7.61
2018-04-27T04:08:53.546Z,7.59
2018-04-27T04:10:07.764Z,7.61
2018-04-27T04:11:22.500Z,7.61
2018-04-27T04:12:36.205Z,7.58
2018-04-27T04:13:50.665Z,7.58
2018-04-27T04:15:05.118Z,7.58
2018-04-27T04:16:19.370Z,7.57
2018-04-27T04:17:33.846Z,7.55
2018-04-27T04:18:48.586Z,7.61
2018-04-27T04:20:02.762Z,7.63
2018-04-27T04:21:16.459Z,7.67
2018-04-27T04:22:30.684Z,7.74
2018-04-27T04:23:45.210Z,7.82
2018-04-27T04:24:59.805Z,7.89
2018-04-27T04:26:14.352Z,8
2018-04-27T04:27:28.554Z,8.06
2018-04-27T04:28:43.251Z,8.14
2018-04-27T04:29:57.581Z,8.18
2018-04-27T04:31:12.322Z,8.22
2018-04-27T04:32:26.588Z,8.24
2018-04-27T04:33:41.703Z,8.23
2018-04-27T04:34:56.532Z,8.18
2018-04-27T04:36:10.757Z,8.14
2018-04-27T04:37:25.739Z,8.11
2018-04-27T04:38:40.592Z,8.1
2018-04-27T04:39:55.298Z,8.11
2018-04-27T04:41:10.283Z,8.15
2018-04-27T04:42:24.549Z,8.19
2018-04-27T04:43:38.742Z,8.22
2018-04-27T04:44:52.956Z,8.29
2018-04-27T04:46:07.817Z,8.38
2018-04-27T04:47:23.156Z,8.49
2018-04-27T04:48:37.671Z,8.71
2018-04-27T04:49:51.424Z,9.07
2018-04-27T04:51:05.910Z,9.86
2018-04-27T04:52:20.581Z,10.67
2018-04-27T04:53:34.427Z,10.9
2018-04-27T04:54:48.672Z,10.93
2018-04-27T04:56:03.706Z,10.97
2018-04-27T04:57:17.934Z,10.99
2018-04-27T04:58:32.399Z,11.34
2018-04-27T04:59:47.116Z,12.39
2018-04-27T05:01:01.609Z,13.06
2018-04-27T05:02:16.818Z,13
2018-04-27T05:03:31.397Z,12.74
2018-04-27T05:04:45.374Z,12.46
2018-04-27T05:05:59.876Z,12.29
2018-04-27T05:07:14.135Z,12.21
2018-04-27T05:08:29.146Z,12.17
2018-04-27T05:09:43.345Z,12.12
2018-04-27T05:10:58.010Z,12.09
2018-04-27T05:12:12.008Z,12.09
2018-04-27T05:13:26.743Z,12.04
2018-04-27T05:14:41.933Z,12.06
2018-04-27T05:15:55.907Z,12.05
2018-04-27T05:17:17.018Z,12.02
2018-04-27T05:18:31.237Z,11.95
2018-04-27T05:19:45.467Z,11.87
2018-04-27T05:21:00.147Z,11.81
2018-04-27T05:22:14.694Z,11.75
2018-04-27T05:23:28.941Z,11.66
2018-04-27T05:24:43.427Z,11.57
2018-04-27T05:25:57.864Z,11.52
2018-04-27T05:27:12.080Z,11.46
2018-04-27T05:28:26.864Z,11.45
2018-04-27T05:29:41.528Z,11.47
2018-04-27T05:30:56.760Z,11.47
2018-04-27T05:32:10.724Z,11.5
2018-04-27T05:33:24.772Z,11.53
2018-04-27T05:34:39.269Z,11.59
2018-04-27T05:35:53.571Z,11.65
2018-04-27T05:37:07.772Z,11.71
2018-04-27T05:38:22.489Z,11.83
2018-04-27T05:39:36.683Z,11.94
2018-04-27T05:40:50.445Z,12.06
2018-04-27T05:42:04.977Z,12.19
2018-04-27T05:43:19.504Z,12.32
2018-04-27T05:44:33.991Z,12.49
2018-04-27T05:45:48.433Z,12.63
2018-04-27T05:47:03.149Z,12.79
2018-04-27T05:48:17.986Z,12.92
2018-04-27T05:49:32.122Z,13.07
2018-04-27T05:50:47.336Z,13.18
2018-04-27T05:52:01.549Z,13.3
2018-04-27T05:53:15.771Z,13.4
2018-04-27T05:54:30.115Z,13.49
2018-04-27T05:55:44.669Z,13.57
2018-04-27T05:56:59.149Z,13.67
2018-04-27T05:58:13.415Z,13.76
2018-04-27T05:59:28.120Z,13.87
2018-04-27T06:00:42.171Z,13.96
2018-04-27T06:01:56.880Z,14.06
2018-04-27T06:03:10.876Z,14.13
2018-04-27T06:04:25.062Z,14.13
2018-04-27T06:05:40.185Z,14.21
2018-04-27T06:06:54.166Z,14.26
2018-04-27T06:08:09.362Z,14.27
2018-04-27T06:09:24.251Z,14.27
2018-04-27T06:10:38.474Z,14.29
2018-04-27T06:11:53.185Z,14.31
2018-04-27T06:13:07.426Z,14.38
2018-04-27T06:14:22.054Z,14.39
2018-04-27T06:15:36.560Z,14.43
2018-04-27T06:16:51.033Z,14.46
2018-04-27T06:18:05.762Z,14.45
2018-04-27T06:19:20.678Z,14.47
2018-04-27T06:20:35.464Z,14.47
2018-04-27T06:21:49.673Z,14.46
2018-04-27T06:23:03.648Z,14.47
2018-04-27T06:24:18.440Z,14.46
2018-04-27T06:25:33.184Z,14.46
2018-04-27T06:26:48.335Z,14.45
2018-04-27T06:28:02.813Z,14.47
2018-04-27T06:29:17.491Z,14.51
2018-04-27T06:30:32.176Z,14.56
2018-04-27T06:31:46.118Z,14.63
2018-04-27T06:33:00.359Z,14.71
2018-04-27T06:34:14.566Z,14.78
2018-04-27T06:35:29.063Z,14.8
2018-04-27T06:36:43.537Z,14.8
2018-04-27T06:37:58.018Z,14.84
2018-04-27T06:39:12.494Z,14.82
2018-04-27T06:40:27.241Z,14.84
2018-04-27T06:41:41.952Z,14.85
2018-04-27T06:42:56.474Z,14.83
2018-04-27T06:44:10.688Z,14.82
2018-04-27T06:45:25.526Z,14.82
2018-04-27T06:46:40.160Z,14.82
2018-04-27T06:47:54.917Z,14.81
2018-04-27T06:49:09.554Z,14.82
2018-04-27T06:50:24.416Z,14.86
2018-04-27T06:51:38.843Z,14.88
2018-04-27T06:52:53.839Z,14.94
2018-04-27T06:54:08.590Z,14.98
2018-04-27T06:55:23.078Z,15.02
2018-04-27T06:56:37.923Z,15.1
2018-04-27T06:57:52.428Z,15.19
2018-04-27T06:59:06.682Z,15.26
2018-04-27T07:00:21.071Z,15.32
2018-04-27T07:01:35.734Z,15.38
2018-04-27T07:02:49.978Z,15.45
2018-04-27T07:04:04.214Z,15.48
2018-04-27T07:05:18.960Z,15.5
2018-04-27T07:06:33.135Z,15.55
2018-04-27T07:07:47.609Z,15.54
2018-04-27T07:09:01.571Z,15.54
2018-04-27T07:10:22.568Z,15.55
2018-04-27T07:11:37.113Z,15.55
2018-04-27T07:12:52.067Z,15.54
2018-04-27T07:14:06.619Z,15.47
2018-04-27T07:15:20.789Z,15.37
2018-04-27T07:16:36.017Z,15.31
2018-04-27T07:17:50.979Z,15.26
2018-04-27T07:19:05.740Z,15.29
2018-04-27T07:20:19.992Z,15.31
2018-04-27T07:21:34.473Z,15.39
2018-04-27T07:22:48.961Z,15.43
2018-04-27T07:24:03.091Z,15.48
2018-04-27T07:25:17.572Z,15.43
2018-04-27T07:26:32.322Z,15.39
2018-04-27T07:27:46.863Z,15.45
2018-04-27T07:29:01.631Z,15.51
2018-04-27T07:30:15.581Z,15.58
2018-04-27T07:31:30.308Z,15.63
2018-04-27T07:32:44.574Z,15.73
2018-04-27T07:33:58.795Z,15.71
2018-04-27T07:35:13.428Z,15.75
2018-04-27T07:36:28.219Z,15.76
2018-04-27T07:37:43.172Z,15.74
2018-04-27T07:38:57.191Z,15.77
2018-04-27T07:40:11.958Z,15.8
2018-04-27T07:41:26.749Z,15.82
2018-04-27T07:42:41.596Z,15.81
2018-04-27T07:43:56.089Z,15.83
2018-04-27T07:45:10.926Z,15.87
2018-04-27T07:46:25.698Z,15.87
2018-04-27T07:47:40.682Z,15.93
2018-04-27T07:48:55.198Z,16.01
2018-04-27T07:50:09.186Z,16.09
2018-04-27T07:51:23.144Z,16.14
2018-04-27T07:52:38.301Z,16.2
2018-04-27T07:53:53.040Z,16.16
2018-04-27T07:55:07.606Z,16.16
2018-04-27T07:56:21.894Z,16.21
2018-04-27T07:57:36.370Z,16.27
2018-04-27T07:58:50.588Z,16.32
2018-04-27T08:00:04.582Z,16.33
2018-04-27T08:01:18.570Z,16.32
2018-04-27T08:02:33.446Z,16.31
2018-04-27T08:03:47.895Z,16.12
2018-04-27T08:05:02.383Z,16.05
2018-04-27T08:06:16.849Z,16.03
2018-04-27T08:07:31.562Z,16.06
2018-04-27T08:08:46.241Z,16
2018-04-27T08:10:01.161Z,16
2018-04-27T08:11:15.735Z,16.02
2018-04-27T08:12:30.123Z,16
2018-04-27T08:13:44.263Z,16.04
2018-04-27T08:14:59.210Z,16.03
2018-04-27T08:16:13.164Z,16.03
2018-04-27T08:17:26.871Z,16.05
2018-04-27T08:18:41.855Z,16.08
2018-04-27T08:19:55.768Z,16.09
2018-04-27T08:21:10.508Z,16.04
2018-04-27T08:22:25.747Z,16.09
2018-04-27T08:23:40.254Z,16.12
2018-04-27T08:24:54.686Z,16.16
2018-04-27T08:26:09.176Z,16.21
2018-04-27T08:27:23.135Z,16.28
2018-04-27T08:28:37.377Z,16.38
2018-04-27T08:29:51.837Z,16.48
2018-04-27T08:31:05.958Z,16.57
2018-04-27T08:32:20.444Z,16.68
2018-04-27T08:33:34.961Z,16.75
2018-04-27T08:34:48.938Z,16.79
2018-04-27T08:36:03.745Z,16.79
2018-04-27T08:37:18.389Z,16.82
2018-04-27T08:38:32.872Z,16.87
2018-04-27T08:39:47.349Z,16.91
2018-04-27T08:41:01.657Z,16.96
2018-04-27T08:42:16.421Z,16.97
2018-04-27T08:43:30.733Z,16.94
2018-04-27T08:44:45.285Z,16.91
2018-04-27T08:45:59.511Z,16.88
2018-04-27T08:47:14.231Z,16.87
2018-04-27T08:48:28.971Z,16.88
2018-04-27T08:49:43.563Z,16.91
2018-04-27T08:50:57.875Z,16.94
2018-04-27T08:52:12.363Z,16.98
2018-04-27T08:53:27.125Z,17.02
2018-04-27T08:54:41.143Z,17.05
2018-04-27T08:55:55.698Z,17.04
2018-04-27T08:57:09.443Z,17.09
2018-04-27T08:58:23.927Z,17.14
2018-04-27T08:59:38.464Z,17.19
2018-04-27T09:00:52.725Z,17.22
2018-04-27T09:02:06.706Z,17.26
2018-04-27T09:03:21.523Z,17.27
2018-04-27T09:04:35.589Z,17.26
2018-04-27T09:05:49.810Z,17.25
2018-04-27T09:07:04.557Z,17.24
2018-04-27T09:08:19.524Z,17.28
2018-04-27T09:09:34.155Z,17.33
2018-04-27T09:10:48.169Z,17.34
2018-04-27T09:12:02.586Z,17.33
2018-04-27T09:13:17.035Z,17.37
2018-04-27T09:14:31.835Z,17.38
2018-04-27T09:15:46.894Z,17.39
2018-04-27T09:17:01.445Z,17.37
2018-04-27T09:18:15.449Z,17.36
2018-04-27T09:19:30.079Z,17.32
2018-04-27T09:20:44.341Z,17.26
2018-04-27T09:21:59.093Z,17.24
2018-04-27T09:23:13.588Z,17.22
2018-04-27T09:24:27.583Z,17.22
2018-04-27T09:25:42.064Z,17.17
2018-04-27T09:26:56.422Z,17.1
2018-04-27T09:28:11.013Z,17.07
2018-04-27T09:29:26.055Z,17.09
2018-04-27T09:30:41.118Z,17.15
2018-04-27T09:31:55.655Z,17.23
2018-04-27T09:33:10.123Z,17.35
2018-04-27T09:34:24.932Z,17.45
2018-04-27T09:35:39.880Z,17.53
2018-04-27T09:36:54.563Z,17.58
2018-04-27T09:38:09.341Z,17.6
2018-04-27T09:39:23.338Z,17.63
2018-04-27T09:40:37.425Z,17.68
2018-04-27T09:41:51.664Z,17.73
2018-04-27T09:43:06.192Z,17.8
2018-04-27T09:44:20.409Z,17.8
2018-04-27T09:45:35.191Z,17.82
2018-04-27T09:46:49.957Z,17.83
2018-04-27T09:48:04.146Z,17.84
2018-04-27T09:49:19.132Z,17.87
2018-04-27T09:50:33.948Z,17.89
2018-04-27T09:51:48.848Z,17.88
2018-04-27T09:53:02.452Z,17.93
2018-04-27T09:54:17.430Z,17.96
2018-04-27T09:55:31.702Z,18.02
2018-04-27T09:56:46.669Z,18.05
2018-04-27T09:58:00.894Z,18.07
2018-04-27T09:59:15.260Z,18.08
2018-04-27T10:00:28.962Z,18.09
2018-04-27T10:01:43.243Z,18.09
2018-04-27T10:02:57.996Z,18.1
2018-04-27T10:04:12.739Z,18.1
2018-04-27T10:05:27.729Z,18.12
2018-04-27T10:06:42.331Z,18.12
2018-04-27T10:07:57.107Z,18.11
2018-04-27T10:09:11.704Z,18.1
2018-04-27T10:10:26.155Z,18.08
2018-04-27T10:11:40.696Z,18.03
2018-04-27T10:12:55.882Z,18.07
2018-04-27T10:14:10.467Z,18.11
2018-04-27T10:15:24.468Z,18.15
2018-04-27T10:16:38.976Z,18.19
2018-04-27T10:17:59.736Z,18.22
2018-04-27T10:19:14.542Z,18.26
2018-04-27T10:20:29.646Z,18.34
2018-04-27T10:21:44.627Z,18.4
2018-04-27T10:22:59.517Z,18.46
2018-04-27T10:24:13.501Z,18.52
2018-04-27T10:25:27.490Z,18.53
2018-04-27T10:26:41.963Z,18.54
2018-04-27T10:27:56.811Z,18.55
2018-04-27T10:29:11.065Z,18.52
2018-04-27T10:30:25.339Z,18.49
2018-04-27T10:31:39.059Z,18.42
2018-04-27T10:32:53.334Z,18.39
2018-04-27T10:34:07.965Z,18.37
2018-04-27T10:35:21.952Z,18.42
2018-04-27T10:36:37.090Z,18.48
2018-04-27T10:37:51.406Z,18.53
2018-04-27T10:39:06.168Z,18.59
2018-04-27T10:40:20.365Z,18.6
2018-04-27T10:41:34.600Z,18.61
2018-04-27T10:42:48.700Z,18.6
2018-04-27T10:44:06.717Z,18.62
2018-04-27T10:45:20.952Z,18.63
2018-04-27T10:46:35.215Z,18.66
2018-04-27T10:47:49.585Z,18.66
2018-04-27T10:49:04.340Z,18.69
2018-04-27T10:50:18.358Z,18.71
2018-04-27T10:51:33.281Z,18.71
2018-04-27T10:52:47.591Z,18.75
2018-04-27T10:54:02.064Z,18.76
2018-04-27T10:55:16.581Z,18.77
2018-04-27T10:56:31.103Z,18.83
2018-04-27T10:57:45.174Z,18.89
2018-04-27T10:59:00.033Z,18.96
2018-04-27T11:00:14.510Z,18.97
2018-04-27T11:01:29.001Z,18.97
2018-04-27T11:02:43.005Z,18.91
2018-04-27T11:03:57.033Z,18.94
2018-04-27T11:05:11.768Z,18.92
2018-04-27T11:06:25.235Z,18.93
2018-04-27T11:07:39.757Z,18.95
2018-04-27T11:08:54.714Z,19
2018-04-27T11:10:08.683Z,19.01
2018-04-27T11:11:23.566Z,19.05
2018-04-27T11:12:38.079Z,19.01
2018-04-27T11:13:53.075Z,18.99
2018-04-27T11:15:07.088Z,18.99
2018-04-27T11:16:21.582Z,19.01
2018-04-27T11:17:36.291Z,19.04
2018-04-27T11:18:50.970Z,19.05
2018-04-27T11:20:05.507Z,19.09
2018-04-27T11:21:20.402Z,19.12
2018-04-27T11:22:35.057Z,19.14
2018-04-27T11:23:50.066Z,19.13
2018-04-27T11:25:04.074Z,19.09
2018-04-27T11:26:18.587Z,19.05
2018-04-27T11:27:33.352Z,19.04
2018-04-27T11:28:48.319Z,19
2018-04-27T11:30:02.590Z,18.95
2018-04-27T11:31:16.862Z,18.94
2018-04-27T11:32:31.324Z,18.94
2018-04-27T11:33:45.866Z,18.89
2018-04-27T11:35:01.016Z,18.87
2018-04-27T11:36:15.887Z,18.92
2018-04-27T11:37:30.430Z,18.98
2018-04-27T11:38:44.692Z,19.09
2018-04-27T11:39:58.738Z,19.16
2018-04-27T11:41:12.821Z,19.3
2018-04-27T11:42:27.265Z,19.41
2018-04-27T11:43:42.282Z,19.5
2018-04-27T11:44:57.290Z,19.64
2018-04-27T11:46:11.969Z,19.75
2018-04-27T11:47:26.184Z,19.82
2018-04-27T11:48:40.433Z,19.86
2018-04-27T11:49:54.903Z,19.92
2018-04-27T11:51:08.638Z,20.01
2018-04-27T11:52:22.389Z,20.06
2018-04-27T11:53:37.602Z,20.07
2018-04-27T11:54:52.163Z,20
2018-04-27T11:56:05.922Z,19.99
2018-04-27T11:57:20.178Z,19.94
2018-04-27T11:58:33.963Z,20
2018-04-27T11:59:48.983Z,20
2018-04-27T12:01:03.523Z,19.97
2018-04-27T12:02:18.002Z,19.97
2018-04-27T12:03:32.490Z,20
2018-04-27T12:04:47.032Z,20.06
2018-04-27T12:06:01.532Z,20.12
2018-04-27T12:07:16.314Z,20.19
2018-04-27T12:08:31.051Z,20.25
2018-04-27T12:09:45.273Z,20.29
2018-04-27T12:10:59.586Z,20.32
2018-04-27T12:12:14.396Z,20.31
2018-04-27T12:13:28.692Z,20.26
2018-04-27T12:14:48.951Z,20.2
2018-04-27T12:16:03.716Z,20.23
2018-04-27T12:17:18.193Z,20.26
2018-04-27T12:18:32.456Z,20.34
2018-04-27T12:19:47.497Z,20.43
2018-04-27T12:21:01.823Z,20.51
2018-04-27T12:22:16.549Z,20.6
2018-04-27T12:23:37.168Z,20.66
2018-04-27T12:24:52.334Z,20.71
2018-04-27T12:26:06.505Z,20.76
2018-04-27T12:27:20.994Z,20.8
2018-04-27T12:28:35.233Z,20.84
2018-04-27T12:29:49.997Z,20.9
2018-04-27T12:31:04.543Z,21.02
2018-04-27T12:32:19.607Z,21.1
2018-04-27T12:33:34.087Z,21.15
2018-04-27T12:34:48.350Z,21.14
2018-04-27T12:36:02.829Z,21.19
2018-04-27T12:37:17.219Z,21.28
2018-04-27T12:38:32.634Z,21.37
2018-04-27T12:39:47.608Z,21.43
2018-04-27T12:41:02.122Z,21.47
2018-04-27T12:42:16.724Z,21.52
2018-04-27T12:43:31.235Z,21.54
2018-04-27T12:44:45.461Z,21.55
2018-04-27T12:46:00.416Z,21.53
2018-04-27T12:47:14.917Z,21.52
2018-04-27T12:48:29.671Z,21.55
2018-04-27T12:49:44.181Z,21.56
2018-04-27T12:50:59.035Z,21.57
2018-04-27T12:52:13.714Z,21.59
2018-04-27T12:53:28.333Z,21.57
2018-04-27T12:54:43.438Z,21.6
2018-04-27T12:55:57.730Z,21.63
2018-04-27T12:57:11.982Z,21.66
2018-04-27T12:58:26.784Z,21.7
2018-04-27T12:59:41.542Z,21.78
2018-04-27T13:00:55.883Z,21.85
2018-04-27T13:02:10.996Z,21.91
2018-04-27T13:03:25.516Z,21.93
2018-04-27T13:04:39.821Z,21.97
2018-04-27T13:05:54.116Z,22.02
2018-04-27T13:07:09.793Z,22.07
2018-04-27T13:08:25.906Z,22.07
2018-04-27T13:09:40.507Z,22.06
2018-04-27T13:10:55.581Z,22.04
2018-04-27T13:12:10.469Z,22
2018-04-27T13:13:24.558Z,21.94
2018-04-27T13:14:40.643Z,21.92
2018-04-27T13:15:55.623Z,21.89
2018-04-27T13:17:10.138Z,21.87
2018-04-27T13:18:24.428Z,21.86
2018-04-27T13:19:38.767Z,21.82
2018-04-27T13:20:54.048Z,21.76
2018-04-27T13:22:08.471Z,21.67
2018-04-27T13:23:23.366Z,21.62
2018-04-27T13:24:38.210Z,21.53
2018-04-27T13:25:53.508Z,21.49
2018-04-27T13:27:27.740Z,21.44
2018-04-27T13:28:46.556Z,21.38
2018-04-27T13:30:01.207Z,21.41
2018-04-27T13:31:22.875Z,21.45
2018-04-27T13:32:38.175Z,21.47
2018-04-27T13:33:52.749Z,21.43
2018-04-27T13:35:08.443Z,21.41
2018-04-27T13:36:22.827Z,21.33
2018-04-27T13:37:37.398Z,21.33
2018-04-27T13:38:52.146Z,21.32
2018-04-27T13:40:06.713Z,21.34
2018-04-27T13:41:21.813Z,21.32
2018-04-27T13:42:35.994Z,21.3
2018-04-27T13:43:50.292Z,21.3
2018-04-27T13:45:05.418Z,21.32
2018-04-27T13:46:20.158Z,21.32
2018-04-27T13:47:35.119Z,21.32
2018-04-27T13:48:50.217Z,21.32
2018-04-27T13:50:04.810Z,21.35
2018-04-27T13:51:19.257Z,21.38
2018-04-27T13:52:34.645Z,21.4
2018-04-27T13:53:48.895Z,21.41
2018-04-27T13:55:03.658Z,21.39
2018-04-27T13:56:18.561Z,21.35
2018-04-27T13:57:33.278Z,21.32
2018-04-27T13:58:47.592Z,21.36
2018-04-27T14:00:02.085Z,21.39
2018-04-27T14:01:16.509Z,21.47
2018-04-27T14:02:31.111Z,21.49
2018-04-27T14:03:45.786Z,21.55
2018-04-27T14:05:00.533Z,21.63
2018-04-27T14:06:15.774Z,21.71
2018-04-27T14:07:30.755Z,21.71
2018-04-27T14:08:45.021Z,21.73
2018-04-27T14:09:59.350Z,21.7
2018-04-27T14:11:14.168Z,21.69
2018-04-27T14:12:30.292Z,21.67
2018-04-27T14:13:44.528Z,21.67
2018-04-27T14:14:59.342Z,21.69
2018-04-27T14:16:13.656Z,21.71
2018-04-27T14:17:27.868Z,21.74
2018-04-27T14:18:42.536Z,21.78
2018-04-27T14:19:58.897Z,21.83
2018-04-27T14:21:13.799Z,21.88
2018-04-27T14:22:28.618Z,22
2018-04-27T14:23:42.614Z,22.05
2018-04-27T14:24:57.378Z,22.04
2018-04-27T14:26:12.214Z,22.05
2018-04-27T14:27:27.057Z,22
2018-04-27T14:28:41.375Z,21.94
2018-04-27T14:29:56.106Z,21.89
2018-04-27T14:31:10.582Z,21.86
2018-04-27T14:32:25.491Z,21.89
2018-04-27T14:33:39.953Z,21.91
2018-04-27T14:34:54.571Z,21.93
2018-04-27T14:36:09.348Z,21.95
2018-04-27T14:37:24.075Z,21.96
2018-04-27T14:38:38.970Z,21.96
2018-04-27T14:39:53.453Z,21.93
2018-04-27T14:41:08.651Z,21.94
2018-04-27T14:42:23.568Z,21.97
2018-04-27T14:43:38.448Z,21.98
2018-04-27T14:44:52.809Z,22.05
2018-04-27T14:46:07.217Z,22.11
2018-04-27T14:47:22.241Z,22.16
2018-04-27T14:48:36.861Z,22.2
2018-04-27T14:49:51.451Z,22.21
2018-04-27T14:51:06.273Z,22.26
2018-04-27T14:52:20.757Z,22.27
2018-04-27T14:53:34.689Z,22.32
2018-04-27T14:54:48.953Z,22.39
2018-04-27T14:56:03.660Z,22.4
2018-04-27T14:57:18.469Z,22.43
2018-04-27T14:58:33.472Z,22.39
2018-04-27T14:59:48.566Z,22.34
2018-04-27T15:01:02.887Z,22.29
2018-04-27T15:02:17.219Z,22.27
2018-04-27T15:03:38.170Z,22.24
2018-04-27T15:04:53.391Z,22.27
2018-04-27T15:06:07.740Z,22.29
2018-04-27T15:07:22.770Z,22.27
2018-04-27T15:08:38.315Z,22.23
2018-04-27T15:09:53.136Z,22.17
2018-04-27T15:11:07.972Z,22.14
2018-04-27T15:12:22.055Z,22.13
2018-04-27T15:13:35.851Z,22.09
2018-04-27T15:14:50.628Z,22.11
2018-04-27T15:16:05.537Z,22.13
2018-04-27T15:17:20.220Z,22.22
2018-04-27T15:18:35.016Z,22.26
2018-04-27T15:19:49.276Z,22.25
2018-04-27T15:21:03.381Z,22.29
2018-04-27T15:22:19.141Z,22.29
2018-04-27T15:23:33.849Z,22.31
2018-04-27T15:24:51.204Z,22.34
2018-04-27T15:26:05.459Z,22.44
2018-04-27T15:27:20.154Z,22.53
2018-04-27T15:28:34.060Z,22.62
2018-04-27T15:29:49.079Z,22.69
2018-04-27T15:31:03.827Z,22.73
2018-04-27T15:32:18.079Z,22.75
2018-04-27T15:33:32.731Z,22.76
2018-04-27T15:34:47.382Z,22.75
2018-04-27T15:36:01.751Z,22.77
2018-04-27T15:37:15.789Z,22.78
2018-04-27T15:38:30.365Z,22.79
2018-04-27T15:39:45.375Z,22.81
2018-04-27T15:41:00.210Z,22.83
2018-04-27T15:42:14.739Z,22.84
2018-04-27T15:43:29.272Z,22.81
2018-04-27T15:44:44.148Z,22.79
2018-04-27T15:45:58.670Z,22.75
2018-04-27T15:47:13.791Z,22.68
2018-04-27T15:48:29.193Z,22.61
2018-04-27T15:49:43.473Z,22.59
2018-04-27T15:50:58.269Z,22.57
2018-04-27T15:52:12.684Z,22.54
2018-04-27T15:53:27.484Z,22.54
2018-04-27T15:54:42.490Z,22.57
2018-04-27T15:55:59.889Z,22.59
2018-04-27T15:57:14.784Z,22.61
2018-04-27T15:58:30.130Z,22.64
2018-04-27T15:59:44.537Z,22.67
2018-04-27T16:00:59.242Z,22.67
2018-04-27T16:05:08.701Z,22.7
2018-04-27T16:06:22.877Z,22.72
2018-04-27T16:07:37.559Z,22.74
2018-04-27T16:08:52.152Z,22.78
2018-04-27T16:10:06.811Z,22.8
2018-04-27T16:11:21.401Z,22.83
2018-04-27T16:12:36.037Z,22.88
2018-04-27T16:13:50.760Z,22.93
2018-04-27T16:15:17.977Z,22.97
2018-04-27T16:16:32.108Z,23
2018-04-27T16:17:47.021Z,23.03
2018-04-27T16:19:01.260Z,23.08
2018-04-27T16:20:16.654Z,23.11
2018-04-27T16:21:31.220Z,23.16